Russiaville, IN (46979)

12:31 AM EDT on May 23, 2015 (GMT -0400)
Russiaville Fire Department | | Change Station
CLOSE
Current Station
Personal Weather Station
Location: Russiaville, IN
Elevation: 846 ft
Nearby Weather Stations

Elev 846 ft 40.42 °N, 86.27 °W | Updated 1 second ago

Clear
Clear
58.5 °F
Feels Like 58.5 °F
N
3.4
Wind Variable Wind from ENE
Gusts 4.9 mph

Today
High -- | Low -- °F
--% Chance of Precip.
Yesterday
High -- | Low -- °F
Precip. -- in
6:22 AM 9:01 PM
Waxing Crescent, 26% visible
Pressure 30.30 in
Visibility 10.0 miles
Clouds Clear
Dew Point 38 °F
Humidity 47%
Rainfall 0.00 in
Snow Depth Not available.
UV 0 out of 12
Pollen 8.80 out of 12
Air Quality Not available.
Flu Activity Sporadic
METAR KOKK 230415Z AUTO 06007KT 10SM CLR 13/04 A3030 RMK AO1

More Conditions Fewer Conditions

Pressure 30.30 in
Visibility 10.0 miles
Clouds Clear
Dew Point 38 °F
Humidity 47%
Rainfall 0.00 in
Snow Depth Not available.
UV 0 out of 12
Pollen 8.80 out of 12
Air Quality Not available.
Flu Activity Sporadic
METAR KOKK 230415Z AUTO 06007KT 10SM CLR 13/04 A3030 RMK AO1

More Conditions Fewer Conditions

10-Day Weather Forecast

Almanac

Astronomy

May. 23, 2015 Rise Set
Actual Time
Civil Twilight
Nautical Twilight
Astronomical Twilight
Moon
Length of Visible Light
Length of Day
Tomorrow will be .
, % of the Moon is Illuminated

Today's Extremes

State Highs State Lows

Community

WunderPhotos

Upload Photos

1,823,386 photos uploaded!

WunderBlogs® & News

Nearby

Air Quality

  Air Quality AQ Index Pollutant
Not available.

Snow Depth

Station Depth Elevation

Earthquake Activity

City Distance Mag. Time & Date
Minimum magnitude displayed is 2.5.

Coastal Water Temperatures

Place Temperature

Stations

Nearby Weather Stations

Station Location Temp. Windchill Dew Point Humidity Wind Precip. Elev Updated Type